Time;durP1;ratioP1;P1;durP2;ratioP2;P2;SDS_P1;SDS_P2;PMS_P1;PMS_P2;Temp;Humidity;BMP_temperature;BMP_pressure;BME280_temperature;BME280_humidity;BME280_pressure;Samples;Min_cycle;Max_cycle;Signal;HPM_P1;HPM_P2
2023/07/18 00:00:03;;;;;;;6.60;6.00;;;;;;;19.39;80.82;100544.30;106038;1259;96597;-80
2023/07/18 00:03:12;;;;;;;9.10;7.40;;;;;;;19.35;81.20;100539.66;105877;1259;97107;-81
2023/07/18 00:05:58;;;;;;;8.80;7.50;;;;;;;19.37;81.35;100550.61;106082;1262;99979;-82
2023/07/18 00:08:44;;;;;;;8.60;7.80;;;;;;;19.36;81.17;100553.48;106056;1261;100416;-81
2023/07/18 00:11:30;;;;;;;9.80;8.10;;;;;;;19.34;81.15;100550.38;106038;1262;99320;-82
2023/07/18 00:14:16;;;;;;;11.00;7.70;;;;;;;19.31;81.10;100553.89;105916;1259;97255;-82
2023/07/18 00:17:02;;;;;;;7.80;7.00;;;;;;;19.27;81.03;100556.16;106045;1259;96483;-83
2023/07/18 00:19:50;;;;;;;7.70;7.00;;;;;;;19.21;80.98;100555.04;106244;1262;100618;-82
2023/07/18 00:22:36;;;;;;;7.50;6.70;;;;;;;19.18;81.17;100551.88;105975;1264;99365;-84
2023/07/18 00:25:21;;;;;;;8.30;7.50;;;;;;;19.17;81.09;100550.34;106371;1262;99119;-83
2023/07/18 00:28:09;;;;;;;7.80;7.10;;;;;;;19.16;81.25;100548.98;106089;1262;96527;-83
2023/07/18 00:30:55;;;;;;;10.50;4.80;;;;;;;19.11;80.70;100552.56;106027;1265;98277;-82
2023/07/18 00:33:40;;;;;;;6.50;3.80;;;;;;;18.99;80.22;100559.94;106124;1262;100324;-83
2023/07/18 00:36:27;;;;;;;5.70;4.20;;;;;;;18.86;80.42;100564.07;105957;1262;99159;-83
2023/07/18 00:39:13;;;;;;;4.90;4.10;;;;;;;18.76;80.70;100560.35;105898;1258;98955;-83
2023/07/18 00:42:00;;;;;;;6.90;6.20;;;;;;;18.70;81.04;100559.64;105978;1257;96711;-84
2023/07/18 00:44:51;;;;;;;7.20;5.60;;;;;;;18.68;81.39;100557.64;106148;1265;98014;-81
2023/07/18 00:47:40;;;;;;;11.00;5.90;;;;;;;18.69;81.16;100555.16;106005;1257;100072;-83
2023/07/18 00:50:27;;;;;;;6.50;5.80;;;;;;;18.69;81.30;100553.36;105875;1258;100193;-82
2023/07/18 00:53:13;;;;;;;7.20;6.30;;;;;;;18.66;81.69;100556.60;105965;1262;98637;-81
2023/07/18 00:55:59;;;;;;;7.40;6.30;;;;;;;18.61;81.92;100565.45;105885;1259;96554;-82
2023/07/18 00:58:45;;;;;;;8.40;6.30;;;;;;;18.56;81.97;100588.48;105842;1267;97116;-83
2023/07/18 01:01:32;;;;;;;10.90;7.10;;;;;;;18.53;82.79;100630.19;105965;1262;100932;-83
2023/07/18 01:04:18;;;;;;;9.20;6.10;;;;;;;18.48;83.37;100680.64;106189;1257;100498;-84
2023/07/18 01:07:04;;;;;;;11.40;6.90;;;;;;;18.40;83.58;100715.19;105886;1259;97802;-82
2023/07/18 01:09:52;;;;;;;7.60;6.50;;;;;;;18.32;84.39;100732.18;106021;1262;96522;-82
2023/07/18 01:12:38;;;;;;;9.50;6.40;;;;;;;18.31;84.78;100743.67;106225;1257;96387;-82
2023/07/18 01:15:28;;;;;;;10.40;7.10;;;;;;;18.28;84.75;100747.44;105978;1257;102314;-84
2023/07/18 01:18:13;;;;;;;6.80;5.70;;;;;;;18.21;84.98;100757.73;105931;1257;100477;-83
2023/07/18 01:21:01;;;;;;;8.70;5.40;;;;;;;18.10;84.64;100768.41;106027;1262;97876;-82
2023/07/18 01:23:47;;;;;;;9.60;6.60;;;;;;;17.89;84.54;100770.23;106050;1259;97556;-81
2023/07/18 01:26:33;;;;;;;9.50;5.80;;;;;;;17.67;85.14;100759.69;106070;1262;97149;-83
2023/07/18 01:29:19;;;;;;;8.80;5.00;;;;;;;17.48;85.80;100760.70;105904;1257;100048;-83
2023/07/18 01:32:04;;;;;;;7.50;5.20;;;;;;;17.34;86.30;100773.91;106082;1263;99261;-82
2023/07/18 01:34:50;;;;;;;9.70;4.90;;;;;;;17.22;87.12;100776.39;106039;1263;97860;-82
2023/07/18 01:37:37;;;;;;;8.10;4.90;;;;;;;17.11;87.57;100766.86;106118;1258;96405;-84
2023/07/18 01:40:23;;;;;;;6.70;4.80;;;;;;;16.99;88.01;100772.63;105995;1265;97074;-82
2023/07/18 01:43:09;;;;;;;7.70;4.70;;;;;;;16.89;88.83;100782.77;106129;1263;109897;-83
2023/07/18 01:45:59;;;;;;;7.10;4.30;;;;;;;16.80;89.24;100783.57;106038;1260;99172;-82
2023/07/18 01:48:47;;;;;;;9.00;4.70;;;;;;;16.70;89.82;100787.23;105889;1263;97780;-82
2023/07/18 01:51:33;;;;;;;6.80;4.20;;;;;;;16.68;90.21;100799.29;105898;1267;96616;-82
2023/07/18 01:54:19;;;;;;;8.80;4.50;;;;;;;16.69;90.36;100796.02;105961;1263;96635;-83
2023/07/18 01:57:05;;;;;;;10.10;3.90;;;;;;;16.71;90.44;100784.73;106210;1262;101465;-83
2023/07/18 01:59:51;;;;;;;7.80;3.80;;;;;;;16.72;90.29;100771.61;105894;1262;99176;-82
2023/07/18 02:02:38;;;;;;;7.00;3.90;;;;;;;16.75;90.36;100776.21;105951;1262;97739;-83
2023/07/18 02:05:25;;;;;;;8.10;3.70;;;;;;;16.84;90.64;100784.45;105912;1264;97158;-85
2023/07/18 02:08:10;;;;;;;7.30;3.80;;;;;;;16.90;90.38;100774.23;106176;1262;96442;-82
2023/07/18 02:10:56;;;;;;;5.30;3.70;;;;;;;16.93;90.57;100784.61;106010;1263;100074;-82
2023/07/18 02:13:42;;;;;;;5.90;3.90;;;;;;;17.02;90.83;100781.60;106006;1258;100456;-83
2023/07/18 02:16:31;;;;;;;5.50;3.90;;;;;;;17.12;91.04;100759.22;106017;1257;99512;-82
2023/07/18 02:19:16;;;;;;;9.50;4.40;;;;;;;17.21;91.11;100767.65;105977;1264;97212;-82
2023/07/18 02:22:03;;;;;;;9.60;4.60;;;;;;;17.23;90.65;100778.05;106020;1257;96618;-83
2023/07/18 02:24:49;;;;;;;7.70;3.60;;;;;;;17.28;90.69;100759.61;105889;1257;102319;-81
2023/07/18 02:27:39;;;;;;;8.40;4.10;;;;;;;17.37;90.69;100757.34;105750;1263;99750;-83
2023/07/18 02:30:24;;;;;;;7.00;4.70;;;;;;;17.41;90.64;100764.95;105922;1258;99128;-82
2023/07/18 02:33:10;;;;;;;9.50;4.40;;;;;;;17.44;90.54;100782.04;106063;1268;96700;-82
2023/07/18 02:35:58;;;;;;;8.30;4.10;;;;;;;17.47;90.67;100796.88;105973;1264;97642;-83
2023/07/18 02:38:43;;;;;;;9.70;4.40;;;;;;;17.52;90.42;100796.50;106029;1263;101955;-83
2023/07/18 02:41:29;;;;;;;8.10;4.20;;;;;;;17.57;90.47;100798.52;105836;1257;101228;-82
2023/07/18 02:44:14;;;;;;;9.80;3.80;;;;;;;17.59;90.33;100783.42;106130;1264;99062;-83
2023/07/18 02:47:01;;;;;;;7.80;4.00;;;;;;;17.58;90.00;100762.27;106013;1264;96679;-82
2023/07/18 02:49:46;;;;;;;7.60;3.90;;;;;;;17.47;89.85;100775.92;105927;1257;97122;-83
2023/07/18 02:52:33;;;;;;;12.30;4.40;;;;;;;17.38;90.05;100775.36;105996;1261;100666;-84
2023/07/18 02:55:19;;;;;;;4.80;3.80;;;;;;;17.23;89.70;100766.38;105989;1258;101186;-83
2023/07/18 02:58:05;;;;;;;5.40;3.90;;;;;;;17.13;90.04;100747.80;105948;1266;97719;-83
2023/07/18 03:00:51;;;;;;;6.20;4.30;;;;;;;17.06;90.29;100751.79;105940;1266;96620;-83
2023/07/18 03:03:40;;;;;;;4.90;3.80;;;;;;;17.01;90.50;100766.13;105819;1259;96782;-82
2023/07/18 03:06:26;;;;;;;8.90;4.40;;;;;;;16.97;90.93;100776.94;105850;1266;100119;-83
2023/07/18 03:09:11;;;;;;;6.10;4.10;;;;;;;16.99;91.08;100786.91;105913;1262;99083;-83
2023/07/18 03:11:57;;;;;;;5.60;3.80;;;;;;;17.03;91.13;100795.58;105837;1261;97797;-83
2023/07/18 03:14:43;;;;;;;4.60;3.90;;;;;;;17.07;90.96;100802.20;106172;1264;97458;-84
2023/07/18 03:17:28;;;;;;;6.10;3.80;;;;;;;17.10;90.90;100807.30;106020;1264;97206;-83
2023/07/18 03:20:17;;;;;;;5.40;3.90;;;;;;;17.15;90.69;100805.73;105993;1257;101369;-81
2023/07/18 03:23:02;;;;;;;6.60;4.40;;;;;;;17.18;90.51;100802.55;106122;1262;99113;-83
2023/07/18 03:25:48;;;;;;;7.20;4.00;;;;;;;17.21;90.39;100798.40;106068;1258;98949;-83
2023/07/18 03:28:35;;;;;;;5.80;4.00;;;;;;;17.22;90.19;100796.92;105952;1257;97178;-84
2023/07/18 03:31:22;;;;;;;4.90;4.10;;;;;;;17.22;89.94;100799.95;106223;1263;96556;-83
2023/07/18 03:34:08;;;;;;;9.60;4.50;;;;;;;17.22;89.82;100807.41;106306;1263;100049;-82
2023/07/18 03:36:53;;;;;;;8.50;4.20;;;;;;;17.22;89.90;100807.95;105875;1257;99184;-82
2023/07/18 03:39:40;;;;;;;6.50;3.80;;;;;;;17.23;89.80;100811.24;105837;1264;97851;-83
2023/07/18 03:42:26;;;;;;;8.30;4.20;;;;;;;17.23;89.65;100814.66;106038;1263;96965;-84
2023/07/18 03:45:13;;;;;;;5.00;4.00;;;;;;;17.24;89.44;100816.38;106203;1257;96665;-84
2023/07/18 03:47:59;;;;;;;7.30;4.80;;;;;;;17.28;89.91;100817.96;106159;1257;100538;-82
2023/07/18 03:50:45;;;;;;;6.90;4.00;;;;;;;17.31;89.70;100816.27;106307;1264;99706;-82
2023/07/18 03:53:31;;;;;;;4.50;3.80;;;;;;;17.34;89.70;100816.55;106213;1257;100037;-82
2023/07/18 03:56:17;;;;;;;6.80;4.20;;;;;;;17.37;89.81;100816.98;105836;1257;96703;-82
2023/07/18 03:59:03;;;;;;;6.30;4.50;;;;;;;17.38;89.85;100820.91;105853;1264;98292;-83
2023/07/18 04:01:48;;;;;;;6.60;4.30;;;;;;;17.38;90.00;100820.27;105442;1264;543249;-82
2023/07/18 04:04:34;;;;;;;6.20;4.00;;;;;;;17.40;90.16;100812.04;105893;1257;100234;-82
2023/07/18 04:07:20;;;;;;;5.20;4.00;;;;;;;17.45;90.26;100811.73;106058;1257;99193;-83
2023/07/18 04:10:06;;;;;;;4.40;4.00;;;;;;;17.51;90.43;100817.81;105965;1257;96617;-83
2023/07/18 04:12:52;;;;;;;5.90;3.90;;;;;;;17.57;90.36;100814.52;106083;1264;96515;-82
2023/07/18 04:15:37;;;;;;;5.00;3.90;;;;;;;17.64;90.58;100815.66;106219;1257;100059;-82
2023/07/18 04:18:23;;;;;;;6.80;3.90;;;;;;;17.68;90.75;100814.40;106176;1263;100430;-82
2023/07/18 04:21:09;;;;;;;5.20;4.20;;;;;;;17.72;91.01;100813.48;105830;1257;97768;-82
2023/07/18 04:23:54;;;;;;;7.10;4.30;;;;;;;17.76;91.14;100810.95;105878;1258;96610;-83
2023/07/18 04:26:40;;;;;;;7.00;4.00;;;;;;;17.83;91.27;100820.77;105989;1264;96867;-82
2023/07/18 04:29:26;;;;;;;5.90;4.30;;;;;;;17.90;91.32;100826.88;106167;1257;101923;-83
2023/07/18 04:32:12;;;;;;;8.30;4.70;;;;;;;17.94;91.33;100829.77;105898;1258;100435;-84
2023/07/18 04:34:57;;;;;;;5.80;4.40;;;;;;;17.99;91.22;100838.63;106058;1257;97826;-82
2023/07/18 04:37:43;;;;;;;5.40;4.10;;;;;;;17.99;91.38;100838.42;105958;1257;96521;-82
2023/07/18 04:40:28;;;;;;;5.80;4.20;;;;;;;17.93;91.50;100844.88;105857;1257;96694;-84
2023/07/18 04:43:13;;;;;;;7.70;4.30;;;;;;;17.88;91.75;100848.58;106253;1258;100718;-83
2023/07/18 04:45:58;;;;;;;6.20;4.30;;;;;;;17.91;92.29;100856.96;106023;1257;99130;-82
2023/07/18 04:48:44;;;;;;;4.90;4.10;;;;;;;17.94;92.16;100857.95;105792;1267;97927;-81
2023/07/18 04:51:29;;;;;;;5.60;4.20;;;;;;;17.97;92.26;100855.54;105962;1257;97075;-83
2023/07/18 04:54:14;;;;;;;6.10;4.10;;;;;;;18.04;92.33;100858.84;106093;1259;96759;-84
2023/07/18 04:57:00;;;;;;;7.60;4.60;;;;;;;18.06;92.24;100862.42;106062;1263;100075;-85
2023/07/18 04:59:45;;;;;;;8.80;4.40;;;;;;;18.09;92.00;100863.68;105743;1263;100445;-84
2023/07/18 05:02:31;;;;;;;8.40;4.40;;;;;;;18.12;92.30;100863.73;105825;1257;97785;-84
2023/07/18 05:05:17;;;;;;;10.30;4.20;;;;;;;18.18;92.14;100861.61;106180;1257;97086;-82
2023/07/18 05:08:03;;;;;;;7.30;4.20;;;;;;;18.26;92.24;100858.52;106109;1257;97141;-83
2023/07/18 05:10:50;;;;;;;11.90;4.40;;;;;;;18.38;92.37;100860.25;105915;1261;101281;-82
2023/07/18 05:13:35;;;;;;;9.60;4.20;;;;;;;18.51;91.66;100863.85;106229;1261;99136;-83
2023/07/18 05:16:22;;;;;;;7.40;6.00;;;;;;;18.63;91.39;100861.67;106073;1262;97755;-85
2023/07/18 05:19:07;;;;;;;13.70;5.20;;;;;;;18.71;91.22;100863.36;105987;1266;97479;-84
2023/07/18 05:21:52;;;;;;;6.50;4.30;;;;;;;18.80;91.32;100864.73;105986;1258;95861;-85
2023/07/18 05:24:39;;;;;;;8.00;4.70;;;;;;;18.92;91.21;100866.81;105769;1257;100193;-82
2023/07/18 05:27:24;;;;;;;6.40;4.40;;;;;;;18.99;90.47;100866.06;106136;1262;99231;-83
2023/07/18 05:30:16;;;;;;;6.70;4.90;;;;;;;19.07;90.28;100867.23;105797;1266;97906;-84
2023/07/18 05:33:01;;;;;;;6.00;4.60;;;;;;;19.15;89.58;100868.71;106034;1263;96641;-83
2023/07/18 05:35:47;;;;;;;11.30;4.60;;;;;;;19.16;88.85;100869.40;106101;1257;96528;-83
2023/07/18 05:38:33;;;;;;;7.20;4.60;;;;;;;19.16;88.52;100871.52;105807;1257;99988;-83
2023/07/18 05:41:18;;;;;;;7.50;5.00;;;;;;;19.18;88.46;100878.02;105903;1257;100453;-83
2023/07/18 05:44:04;;;;;;;5.00;4.10;;;;;;;19.22;88.42;100880.34;105950;1264;97778;-83
2023/07/18 05:46:49;;;;;;;6.50;5.20;;;;;;;19.30;88.46;100884.77;106182;1257;96625;-83
2023/07/18 05:49:35;;;;;;;9.20;6.70;;;;;;;19.38;88.57;100891.39;106040;1257;97136;-83
2023/07/18 05:52:20;;;;;;;8.60;5.90;;;;;;;19.46;87.92;100891.03;106140;1257;102059;-83
2023/07/18 05:55:07;;;;;;;13.60;8.60;;;;;;;19.50;86.74;100893.17;106264;1263;99202;-82
2023/07/18 05:57:53;;;;;;;9.20;4.60;;;;;;;19.52;86.26;100894.15;105957;1257;99038;-81
2023/07/18 06:00:39;;;;;;;8.50;5.00;;;;;;;19.54;86.02;100891.76;106059;1262;96518;-84
2023/07/18 06:03:25;;;;;;;8.00;4.80;;;;;;;19.54;86.00;100888.08;106197;1257;97349;-83
2023/07/18 06:06:10;;;;;;;8.00;4.30;;;;;;;19.59;86.18;100892.41;105987;1261;100068;-82
2023/07/18 06:08:57;;;;;;;6.70;4.50;;;;;;;19.62;85.63;100892.81;105936;1262;99113;-84
2023/07/18 06:11:43;;;;;;;8.50;4.80;;;;;;;19.66;85.66;100892.36;105998;1257;99114;-83
2023/07/18 06:14:28;;;;;;;5.40;4.80;;;;;;;19.75;85.90;100893.85;105685;1257;96587;-82
2023/07/18 06:17:14;;;;;;;7.40;4.50;;;;;;;19.82;85.60;100891.77;105879;1258;97229;-83
2023/07/18 06:20:00;;;;;;;7.80;5.00;;;;;;;19.89;84.59;100892.40;105793;1257;99995;-84
2023/07/18 06:22:47;;;;;;;6.80;4.80;;;;;;;19.96;84.49;100897.94;105922;1257;99324;-84
2023/07/18 06:25:32;;;;;;;4.80;3.90;;;;;;;20.00;83.17;100902.00;105792;1258;97904;-83
2023/07/18 06:28:17;;;;;;;7.30;4.40;;;;;;;20.00;82.81;100905.09;105834;1257;96718;-82
2023/07/18 06:31:03;;;;;;;5.30;4.20;;;;;;;20.03;82.58;100904.60;105915;1257;96655;-82
2023/07/18 06:33:49;;;;;;;5.80;4.40;;;;;;;20.09;82.50;100906.09;105862;1264;100097;-84
2023/07/18 06:36:35;;;;;;;6.10;4.10;;;;;;;20.16;81.51;100907.27;105798;1264;99200;-84
2023/07/18 06:39:20;;;;;;;7.50;3.70;;;;;;;20.22;80.59;100908.77;105877;1257;97815;-84
2023/07/18 06:42:08;;;;;;;7.30;3.40;;;;;;;20.26;79.45;100911.02;105874;1257;97278;-82
2023/07/18 06:44:54;;;;;;;4.00;3.20;;;;;;;20.27;78.68;100911.37;105953;1262;96605;-82
2023/07/18 06:47:40;;;;;;;4.20;2.90;;;;;;;20.31;77.77;100918.78;105715;1258;100151;-85
2023/07/18 06:50:26;;;;;;;5.00;2.80;;;;;;;20.31;76.72;100921.57;106040;1257;99490;-85
2023/07/18 06:53:13;;;;;;;4.90;2.60;;;;;;;20.34;76.57;100927.55;105782;1259;98996;-85
2023/07/18 06:55:59;;;;;;;3.80;2.60;;;;;;;20.42;76.41;100927.66;105767;1263;96681;-85
2023/07/18 06:58:44;;;;;;;3.90;2.40;;;;;;;20.54;76.52;100928.10;105713;1257;96621;-84
2023/07/18 07:01:30;;;;;;;3.90;1.60;;;;;;;20.61;73.68;100926.18;105856;1267;100052;-83
2023/07/18 07:04:17;;;;;;;2.20;1.80;;;;;;;20.59;71.59;100929.46;105942;1263;100643;-84
2023/07/18 07:07:04;;;;;;;3.00;1.80;;;;;;;20.58;70.86;100935.09;106027;1257;97837;-83
2023/07/18 07:09:50;;;;;;;2.90;1.60;;;;;;;20.58;70.24;100937.33;105745;1263;96625;-83
2023/07/18 07:12:35;;;;;;;1.80;1.30;;;;;;;20.61;69.17;100937.88;105877;1257;96691;-84
2023/07/18 07:15:21;;;;;;;3.50;2.00;;;;;;;20.62;68.79;100941.95;105963;1264;99982;-82
2023/07/18 07:20:14;;;;;;;3.10;1.80;;;;;;;20.69;68.72;100934.61;103543;1292;636102;-84
2023/07/18 07:23:01;;;;;;;4.30;1.70;;;;;;;20.67;68.79;100944.37;105649;1268;96076;-82
2023/07/18 07:25:47;;;;;;;1.80;1.30;;;;;;;20.68;67.24;100945.52;105568;1267;95897;-84
2023/07/18 07:28:35;;;;;;;3.50;1.70;;;;;;;20.69;67.06;100946.89;105715;1267;97378;-84
2023/07/18 07:31:21;;;;;;;5.70;2.00;;;;;;;20.75;67.64;100945.10;105437;1270;99082;-84
2023/07/18 07:34:06;;;;;;;3.60;1.60;;;;;;;20.81;67.42;100950.16;105648;1264;150387;-82
2023/07/18 07:36:53;;;;;;;3.40;1.40;;;;;;;20.86;65.57;100953.79;105779;1266;95889;-83
2023/07/18 07:39:38;;;;;;;1.70;1.60;;;;;;;20.88;63.84;100947.02;105905;1266;96822;-84
2023/07/18 07:42:24;;;;;;;3.90;1.60;;;;;;;20.89;63.67;100946.17;105927;1268;97378;-85
2023/07/18 07:45:10;;;;;;;2.50;1.30;;;;;;;20.95;63.89;100949.09;105881;1267;99288;-83
2023/07/18 07:47:55;;;;;;;2.30;1.30;;;;;;;21.03;63.45;100946.33;106358;1267;99072;-83
2023/07/18 07:50:42;;;;;;;1.70;1.60;;;;;;;21.12;63.44;100950.08;105673;1269;95901;-83
2023/07/18 07:53:28;;;;;;;2.30;1.50;;;;;;;21.20;61.38;100954.41;105556;1270;95949;-83
2023/07/18 07:56:13;;;;;;;1.90;1.40;;;;;;;21.24;60.68;100954.77;105592;1267;99398;-82
2023/07/18 07:58:59;;;;;;;2.20;1.40;;;;;;;21.32;60.51;100961.59;105570;1269;99246;-84
2023/07/18 08:01:44;;;;;;;2.80;1.40;;;;;;;21.40;60.19;100967.98;106344;1254;99078;-85
2023/07/18 08:04:30;;;;;;;2.70;1.10;;;;;;;21.43;58.60;100968.46;106590;1257;95807;-85
2023/07/18 08:07:16;;;;;;;3.40;1.10;;;;;;;21.44;57.21;100968.19;106529;1254;95861;-83
2023/07/18 08:10:03;;;;;;;2.40;1.10;;;;;;;21.42;56.68;100966.66;106622;1254;98659;-82
2023/07/18 08:12:48;;;;;;;2.40;1.20;;;;;;;21.45;56.45;100965.55;106552;1257;99209;-83
2023/07/18 08:15:34;;;;;;;2.20;1.10;;;;;;;21.49;55.91;100964.80;106269;1253;97686;-83
2023/07/18 08:18:19;;;;;;;2.80;1.20;;;;;;;21.50;55.64;100961.38;106160;1260;95908;-84
2023/07/18 08:21:05;;;;;;;2.10;1.30;;;;;;;21.54;55.59;100959.46;106477;1257;95854;-82
2023/07/18 08:23:50;;;;;;;2.70;1.00;;;;;;;21.56;55.87;100960.64;106432;1255;98672;-82
2023/07/18 08:26:36;;;;;;;3.10;1.20;;;;;;;21.59;55.47;100956.50;106408;1258;99169;-84
2023/07/18 08:29:24;;;;;;;1.70;1.00;;;;;;;21.64;55.64;100955.64;106314;1254;99109;-82
2023/07/18 08:32:11;;;;;;;2.20;1.20;;;;;;;21.68;54.29;100957.98;106875;1254;96304;-83
2023/07/18 08:34:57;;;;;;;1.70;0.80;;;;;;;21.69;53.69;100957.95;106438;1254;95880;-83
2023/07/18 08:37:43;;;;;;;3.40;1.10;;;;;;;21.70;53.10;100961.35;106697;1257;99894;-83
2023/07/18 08:40:28;;;;;;;1.30;0.90;;;;;;;21.71;53.32;100958.40;106297;1251;100441;-83
2023/07/18 08:43:14;;;;;;;1.40;1.10;;;;;;;21.75;53.03;100961.02;106594;1251;98464;-81
2023/07/18 08:46:04;;;;;;;1.30;0.90;;;;;;;21.78;52.50;100954.26;106567;1254;97032;-83
2023/07/18 08:48:50;;;;;;;1.50;0.90;;;;;;;21.81;52.51;100956.63;106618;1251;95870;-82
2023/07/18 08:51:36;;;;;;;2.50;1.00;;;;;;;21.84;52.30;100957.27;106499;1254;99912;-82
2023/07/18 08:54:22;;;;;;;2.30;1.00;;;;;;;21.88;52.84;100948.05;106206;1251;100349;-82
2023/07/18 08:57:08;;;;;;;1.90;1.00;;;;;;;21.97;52.39;100952.42;106429;1251;97726;-81
2023/07/18 08:59:54;;;;;;;3.80;1.10;;;;;;;22.06;51.74;100948.78;106408;1251;95941;-83
2023/07/18 09:02:39;;;;;;;2.30;0.90;;;;;;;22.16;52.14;100950.37;106657;1251;95838;-82
2023/07/18 09:05:37;;;;;;;5.10;1.10;;;;;;;22.17;51.27;100949.85;106432;1251;98696;-83
2023/07/18 09:08:23;;;;;;;3.40;1.10;;;;;;;22.20;50.30;100945.28;106477;1251;99305;-82
2023/07/18 09:11:11;;;;;;;1.90;0.80;;;;;;;22.20;50.30;100941.15;106494;1256;97780;-83
2023/07/18 09:13:57;;;;;;;1.90;0.70;;;;;;;22.23;50.33;100943.42;106485;1251;95909;-81
2023/07/18 09:16:43;;;;;;;4.40;0.90;;;;;;;22.25;50.30;100950.77;106363;1251;95806;-82
2023/07/18 09:19:42;;;;;;;2.30;0.80;;;;;;;22.30;49.98;100947.88;106603;1255;98621;-85
2023/07/18 09:22:29;;;;;;;3.10;1.00;;;;;;;22.38;49.58;100938.52;106221;1251;99067;-83
2023/07/18 09:25:16;;;;;;;1.90;0.90;;;;;;;22.44;48.80;100941.97;106482;1251;97726;-83
2023/07/18 09:28:01;;;;;;;2.70;0.90;;;;;;;22.50;48.90;100944.22;106281;1255;96973;-81
2023/07/18 09:30:47;;;;;;;1.20;0.80;;;;;;;22.57;48.87;100946.44;106462;1251;95911;-83
2023/07/18 09:33:34;;;;;;;2.80;1.00;;;;;;;22.56;48.37;100946.36;106321;1251;99313;-81
2023/07/18 09:36:27;;;;;;;3.70;0.90;;;;;;;22.57;48.25;100943.41;106567;1256;100375;-83
2023/07/18 09:39:12;;;;;;;1.60;0.80;;;;;;;22.60;48.27;100946.86;106587;1251;99126;-82
2023/07/18 09:41:59;;;;;;;2.90;1.00;;;;;;;22.62;47.77;100945.14;106475;1251;95946;-82
2023/07/18 09:44:49;;;;;;;3.70;0.90;;;;;;;22.62;47.83;100943.94;106499;1256;95897;-82
2023/07/18 09:47:36;;;;;;;2.30;1.10;;;;;;;22.68;47.14;100943.17;106498;1251;108035;-82
2023/07/18 09:50:23;;;;;;;2.70;1.30;;;;;;;22.71;46.85;100942.66;106396;1254;100617;-81
2023/07/18 09:53:11;;;;;;;3.20;0.90;;;;;;;22.74;47.16;100944.61;106381;1250;97744;-83
2023/07/18 09:55:58;;;;;;;2.30;1.20;;;;;;;22.79;47.25;100944.06;106404;1251;95708;-82
2023/07/18 09:58:48;;;;;;;3.10;0.80;;;;;;;22.82;47.22;100938.30;106387;1256;95879;-83
2023/07/18 10:01:35;;;;;;;2.90;1.00;;;;;;;22.87;47.36;100939.23;106335;1254;99396;-82
2023/07/18 10:04:21;;;;;;;2.20;0.80;;;;;;;22.87;46.99;100941.02;106307;1256;99125;-82
2023/07/18 10:07:11;;;;;;;4.00;1.30;;;;;;;22.87;47.35;100934.91;106522;1254;97801;-81
2023/07/18 10:09:57;;;;;;;5.40;1.10;;;;;;;22.82;47.89;100929.77;106612;1251;95973;-82
2023/07/18 10:12:58;;;;;;;2.50;1.10;;;;;;;22.82;47.74;100929.23;106334;1255;95942;-83
2023/07/18 10:16:13;;;;;;;3.10;1.10;;;;;;;22.90;48.34;100925.80;106407;1251;98662;-83
2023/07/18 10:18:58;;;;;;;4.40;0.90;;;;;;;23.01;47.92;100923.55;106264;1254;99288;-83
2023/07/18 10:21:46;;;;;;;2.70;0.80;;;;;;;23.11;47.75;100921.35;106399;1253;97831;-82
2023/07/18 10:24:32;;;;;;;2.40;0.80;;;;;;;23.18;47.70;100923.63;106525;1251;96547;-81
2023/07/18 10:27:24;;;;;;;2.20;1.00;;;;;;;23.23;46.88;100922.30;106550;1251;95881;-83
2023/07/18 10:30:13;;;;;;;1.60;0.90;;;;;;;23.27;46.86;100921.07;106269;1256;99649;-83
2023/07/18 10:32:58;;;;;;;2.30;0.90;;;;;;;23.28;46.98;100920.00;106246;1250;99089;-84
2023/07/18 10:35:43;;;;;;;4.50;0.80;;;;;;;23.36;46.92;100922.42;106588;1251;98347;-83
2023/07/18 10:38:35;;;;;;;2.50;0.70;;;;;;;23.35;46.24;100914.61;106509;1256;95945;-81
2023/07/18 10:41:20;;;;;;;2.30;0.70;;;;;;;23.37;46.71;100911.13;106418;1251;95902;-82
2023/07/18 10:44:10;;;;;;;5.40;0.90;;;;;;;23.39;46.34;100911.14;106551;1251;98712;-83
2023/07/18 10:46:56;;;;;;;1.80;1.00;;;;;;;23.43;45.42;100905.92;106516;1256;100397;-84
2023/07/18 10:49:42;;;;;;;4.00;0.80;;;;;;;23.46;45.16;100899.80;106547;1251;98311;-82
2023/07/18 10:52:28;;;;;;;4.90;0.90;;;;;;;23.48;45.27;100897.20;106518;1256;95882;-82
2023/07/18 10:55:16;;;;;;;2.80;0.90;;;;;;;23.54;45.81;100902.33;106275;1251;95928;-83
2023/07/18 10:58:02;;;;;;;2.30;0.80;;;;;;;23.58;44.50;100896.00;107469;1254;98618;-81
2023/07/18 11:00:49;;;;;;;2.70;0.80;;;;;;;23.60;44.77;100893.60;106424;1250;99085;-83
2023/07/18 11:03:35;;;;;;;2.70;0.80;;;;;;;23.66;45.05;100893.73;106394;1251;97792;-84
2023/07/18 11:06:21;;;;;;;4.20;0.80;;;;;;;23.75;44.14;100895.42;106361;1259;95889;-83
2023/07/18 11:09:13;;;;;;;2.70;0.60;;;;;;;23.72;43.52;100888.25;106461;1251;96693;-81
2023/07/18 11:12:00;;;;;;;2.60;0.80;;;;;;;23.64;43.61;100884.81;106199;1254;98725;-81
2023/07/18 11:14:46;;;;;;;2.80;0.70;;;;;;;23.66;43.95;100877.77;106349;1251;99869;-82
2023/07/18 11:17:32;;;;;;;1.20;1.00;;;;;;;23.74;44.49;100871.61;106592;1251;97717;-83
2023/07/18 11:20:20;;;;;;;1.70;0.70;;;;;;;23.87;44.21;100882.23;106431;1256;95797;-83
2023/07/18 11:23:06;;;;;;;2.30;1.00;;;;;;;23.95;43.44;100884.20;106289;1254;96403;-82
2023/07/18 11:25:53;;;;;;;1.60;0.70;;;;;;;23.98;43.15;100880.05;106474;1254;98773;-83
2023/07/18 11:28:43;;;;;;;2.10;0.80;;;;;;;23.98;42.48;100880.05;106287;1251;100348;-83
2023/07/18 11:31:31;;;;;;;3.10;0.70;;;;;;;24.02;42.04;100884.02;106573;1254;98991;-82
2023/07/18 11:34:22;;;;;;;1.30;0.80;;;;;;;24.04;41.64;100877.79;106382;1254;95924;-84
2023/07/18 11:37:08;;;;;;;1.20;0.80;;;;;;;24.07;41.62;100875.08;106646;1251;95773;-83
2023/07/18 11:39:57;;;;;;;3.90;1.20;;;;;;;24.09;41.45;100874.48;106824;1251;99473;-83
2023/07/18 11:42:47;;;;;;;2.40;0.70;;;;;;;24.15;41.73;100864.70;106447;1251;99163;-82
2023/07/18 11:45:32;;;;;;;1.10;0.50;;;;;;;24.22;41.71;100865.70;106564;1251;97764;-83
2023/07/18 11:48:19;;;;;;;1.30;0.50;;;;;;;24.26;41.69;100862.98;106225;1251;95930;-83
2023/07/18 11:51:04;;;;;;;1.10;0.90;;;;;;;24.30;41.42;100860.91;106491;1251;95813;-81
2023/07/18 11:53:51;;;;;;;3.50;0.90;;;;;;;24.33;41.62;100855.81;106529;1251;98634;-82
2023/07/18 11:56:37;;;;;;;2.20;1.00;;;;;;;24.39;42.00;100864.69;106483;1254;108431;-83
2023/07/18 11:59:23;;;;;;;3.60;0.70;;;;;;;24.49;41.09;100861.38;106407;1251;99085;-82
2023/07/18 12:02:09;;;;;;;2.80;0.80;;;;;;;24.51;40.38;100863.02;106514;1256;96565;-82
2023/07/18 12:04:55;;;;;;;1.60;0.50;;;;;;;24.60;40.60;100867.25;106180;1256;96964;-83
2023/07/18 12:07:44;;;;;;;0.80;0.50;;;;;;;24.71;41.12;100854.28;106604;1250;99922;-84
2023/07/18 12:10:32;;;;;;;1.40;0.70;;;;;;;24.76;39.85;100851.79;106728;1254;99336;-84
2023/07/18 12:13:18;;;;;;;1.20;0.50;;;;;;;24.74;39.18;100851.43;106352;1251;97724;-83
2023/07/18 12:16:05;;;;;;;5.70;0.90;;;;;;;24.71;39.05;100850.09;106603;1253;96572;-84
2023/07/18 12:18:50;;;;;;;0.80;0.60;;;;;;;24.67;39.00;100845.94;106457;1251;97102;-83
2023/07/18 12:21:36;;;;;;;1.60;0.70;;;;;;;24.64;39.26;100844.79;106367;1253;101299;-83
2023/07/18 12:24:22;;;;;;;1.30;0.80;;;;;;;24.67;39.63;100844.63;106339;1256;99246;-84
2023/07/18 12:27:07;;;;;;;6.40;1.40;;;;;;;24.75;39.84;100838.67;106664;1251;98966;-83
2023/07/18 12:29:53;;;;;;;1.50;0.80;;;;;;;24.87;39.27;100840.77;106578;1254;97291;-83
2023/07/18 12:32:38;;;;;;;2.70;1.30;;;;;;;24.97;38.92;100834.95;106533;1251;96408;-82
2023/07/18 12:35:25;;;;;;;1.50;1.30;;;;;;;25.03;38.90;100833.78;106596;1250;100033;-82
2023/07/18 12:38:11;;;;;;;0.50;0.50;;;;;;;25.09;38.48;100826.27;106626;1251;99189;-84
2023/07/18 12:40:57;;;;;;;1.70;0.70;;;;;;;25.14;37.64;100824.11;106819;1257;99044;-84
2023/07/18 12:43:43;;;;;;;2.90;0.70;;;;;;;25.14;37.29;100824.05;106365;1256;96689;-85